createdAt,value
2023-03-02T00:01:55.025Z,63.87
2023-03-02T00:04:27.358Z,63.43
2023-03-02T00:07:01.299Z,63.67
2023-03-02T00:09:30.340Z,63.56
2023-03-02T00:11:58.988Z,63.89
2023-03-02T00:14:27.712Z,63.99
2023-03-02T00:16:56.110Z,63.92
2023-03-02T00:19:24.543Z,64.25
2023-03-02T00:21:53.070Z,64.10
2023-03-02T00:24:22.860Z,64.14
2023-03-02T00:26:51.249Z,64.19
2023-03-02T00:29:19.742Z,64.47
2023-03-02T00:31:48.258Z,64.71
2023-03-02T00:34:16.835Z,64.74
2023-03-02T00:36:45.310Z,64.88
2023-03-02T00:39:14.167Z,65.01
2023-03-02T00:41:44.044Z,64.91
2023-03-02T00:44:17.613Z,65.12
2023-03-02T00:46:46.678Z,64.67
2023-03-02T00:49:15.144Z,65.11
2023-03-02T00:51:43.625Z,64.95
2023-03-02T00:54:12.131Z,65.07
2023-03-02T00:56:40.559Z,65.15
2023-03-02T00:59:26.517Z,65.28
2023-03-02T01:01:58.244Z,65.66
2023-03-02T01:04:29.839Z,65.49
2023-03-02T01:06:58.507Z,65.55
2023-03-02T01:09:27.692Z,65.95
2023-03-02T01:11:56.226Z,66.23
2023-03-02T01:14:26.642Z,65.82
2023-03-02T01:16:55.760Z,65.69
2023-03-02T01:19:24.510Z,65.30
2023-03-02T01:21:53.109Z,65.54
2023-03-02T01:24:21.569Z,65.14
2023-03-02T01:26:50.216Z,65.39
2023-03-02T01:29:18.817Z,65.39
2023-03-02T01:31:48.776Z,65.38
2023-03-02T01:34:17.517Z,65.85
2023-03-02T01:36:46.444Z,65.99
2023-03-02T01:39:16.085Z,65.86
2023-03-02T01:41:45.010Z,65.96
2023-03-02T01:44:39.603Z,66.28
2023-03-02T01:47:15.459Z,66.74
2023-03-02T01:49:51.133Z,66.23
2023-03-02T01:52:20.576Z,66.15
2023-03-02T01:54:50.669Z,66.39
2023-03-02T01:57:24.065Z,66.47
2023-03-02T01:59:57.131Z,66.71
2023-03-02T02:02:27.769Z,66.63
2023-03-02T02:04:57.484Z,66.53
2023-03-02T02:07:25.908Z,66.45
2023-03-02T02:09:56.643Z,66.22
2023-03-02T02:12:25.219Z,66.35
2023-03-02T02:14:55.093Z,66.22
2023-03-02T02:17:23.637Z,65.91
2023-03-02T02:20:05.941Z,65.76
2023-03-02T02:22:50.690Z,65.54
2023-03-02T02:25:34.045Z,65.39
2023-03-02T02:28:14.540Z,65.58
2023-03-02T02:30:44.150Z,65.67
2023-03-02T02:33:17.588Z,65.62
2023-03-02T02:35:47.917Z,65.74
2023-03-02T02:38:20.270Z,65.75
2023-03-02T02:40:52.822Z,65.87
2023-03-02T02:43:24.053Z,65.94
2023-03-02T02:45:56.476Z,66.16
2023-03-02T02:48:27.028Z,66.13
2023-03-02T02:51:00.430Z,65.73
2023-03-02T02:53:34.068Z,66.22
2023-03-02T02:56:03.938Z,66.45
2023-03-02T02:58:36.884Z,66.97
2023-03-02T03:01:06.179Z,66.82
2023-03-02T03:03:37.471Z,67.02
2023-03-02T03:06:08.349Z,67.10
2023-03-02T03:08:51.965Z,67.11
2023-03-02T03:11:24.445Z,67.00
2023-03-02T03:13:59.712Z,66.78
2023-03-02T03:16:31.104Z,66.93
2023-03-02T03:19:06.537Z,66.67
2023-03-02T03:21:35.141Z,66.44
2023-03-02T03:24:03.534Z,66.25
2023-03-02T03:26:32.257Z,65.98
2023-03-02T03:29:02.981Z,65.78
2023-03-02T03:31:31.380Z,65.92
2023-03-02T03:34:00.557Z,65.79
2023-03-02T03:36:29.980Z,66.12
2023-03-02T03:38:59.746Z,66.37
2023-03-02T03:41:28.444Z,66.23
2023-03-02T03:43:56.830Z,65.99
2023-03-02T03:46:32.024Z,66.02
2023-03-02T03:49:01.460Z,65.84
2023-03-02T03:51:34.991Z,65.96
2023-03-02T03:54:04.206Z,65.41
2023-03-02T03:56:34.642Z,65.67
2023-03-02T03:59:07.218Z,65.93
2023-03-02T04:01:39.706Z,65.84
2023-03-02T04:04:10.058Z,65.98
2023-03-02T04:06:38.603Z,65.63
2023-03-02T04:09:09.836Z,65.48
2023-03-02T04:11:40.802Z,65.45
2023-03-02T04:14:10.375Z,65.16
2023-03-02T04:16:41.057Z,65.43
2023-03-02T04:19:10.210Z,65.50
2023-03-02T04:21:39.183Z,65.51
2023-03-02T04:24:08.242Z,66.10
2023-03-02T04:26:37.699Z,66.50
2023-03-02T04:29:07.140Z,66.19
2023-03-02T04:31:35.996Z,66.44
2023-03-02T04:34:06.867Z,66.28
2023-03-02T04:36:37.728Z,66.29
2023-03-02T04:39:07.608Z,66.61
2023-03-02T04:41:36.485Z,66.72
2023-03-02T04:44:05.099Z,66.61
2023-03-02T04:46:35.019Z,66.77
2023-03-02T04:49:05.729Z,66.66
2023-03-02T04:51:36.608Z,66.35
2023-03-02T04:54:09.652Z,66.78
2023-03-02T04:56:38.071Z,66.99
2023-03-02T04:59:06.918Z,66.69
2023-03-02T05:01:35.356Z,66.63
2023-03-02T05:04:05.656Z,66.82
2023-03-02T05:06:34.830Z,67.14
2023-03-02T05:09:04.709Z,66.78
2023-03-02T05:11:33.537Z,67.16
2023-03-02T05:14:04.207Z,66.97
2023-03-02T05:16:35.475Z,67.09
2023-03-02T05:19:07.790Z,67.27
2023-03-02T05:21:36.641Z,67.39
2023-03-02T05:24:05.945Z,67.07
2023-03-02T05:26:34.796Z,67.19
2023-03-02T05:29:03.535Z,67.55
2023-03-02T05:31:35.956Z,67.60
2023-03-02T05:34:08.907Z,67.67
2023-03-02T05:36:38.553Z,67.63
2023-03-02T05:39:10.203Z,68.19
2023-03-02T05:41:39.361Z,68.04
2023-03-02T05:44:11.793Z,67.88
2023-03-02T05:46:40.864Z,67.71
2023-03-02T05:49:10.682Z,67.92
2023-03-02T05:51:39.934Z,67.77
2023-03-02T05:54:08.837Z,68.29
2023-03-02T05:56:37.605Z,68.20
2023-03-02T05:59:09.036Z,68.50
2023-03-02T06:01:38.468Z,68.82
2023-03-02T06:04:07.156Z,69.12
2023-03-02T06:06:37.147Z,68.93
2023-03-02T06:09:05.829Z,68.73
2023-03-02T06:11:34.240Z,69.18
2023-03-02T06:14:02.924Z,69.05
2023-03-02T06:16:33.714Z,68.69
2023-03-02T06:19:02.627Z,68.53
2023-03-02T06:21:30.971Z,69.14
2023-03-02T06:24:03.020Z,68.82
2023-03-02T06:26:32.032Z,69.07
2023-03-02T06:29:09.784Z,68.81
2023-03-02T06:31:41.097Z,69.39
2023-03-02T06:34:09.796Z,69.18
2023-03-02T06:36:38.996Z,69.13
2023-03-02T06:39:16.693Z,69.63
2023-03-02T06:41:47.802Z,69.46
2023-03-02T06:44:18.085Z,69.04
2023-03-02T06:46:47.613Z,68.93
2023-03-02T06:49:16.375Z,68.92
2023-03-02T06:51:44.848Z,68.45
2023-03-02T06:54:14.959Z,65.63
2023-03-02T06:56:44.771Z,62.25
2023-03-02T06:59:13.262Z,59.08
2023-03-02T07:01:43.699Z,55.68
2023-03-02T07:04:13.434Z,52.65
2023-03-02T07:06:41.937Z,50.54
2023-03-02T07:09:10.333Z,49.11
2023-03-02T07:11:40.093Z,48.58
2023-03-02T07:14:08.536Z,45.80
2023-03-02T07:16:37.038Z,44.04
2023-03-02T07:19:07.877Z,43.25
2023-03-02T07:21:36.807Z,43.25
2023-03-02T07:24:05.691Z,43.78
2023-03-02T07:26:34.343Z,43.74
2023-03-02T07:29:04.360Z,42.17
2023-03-02T07:31:33.095Z,41.36
2023-03-02T07:34:03.087Z,41.41
2023-03-02T07:36:32.987Z,40.52
2023-03-02T07:39:05.660Z,40.65
2023-03-02T07:41:34.368Z,41.58
2023-03-02T07:44:09.320Z,40.61
2023-03-02T07:46:38.053Z,38.65
2023-03-02T07:49:06.660Z,39.51
2023-03-02T07:51:37.248Z,38.84
2023-03-02T07:54:05.754Z,38.57
2023-03-02T07:56:34.162Z,37.76
2023-03-02T07:59:05.305Z,37.20
2023-03-02T08:01:34.107Z,36.99
2023-03-02T08:04:02.663Z,34.92
2023-03-02T08:06:31.145Z,33.41
2023-03-02T08:09:00.248Z,33.81
2023-03-02T08:11:28.596Z,36.34
2023-03-02T08:14:01.329Z,36.70
2023-03-02T08:16:32.085Z,36.49
2023-03-02T08:19:00.482Z,37.71
2023-03-02T08:21:29.874Z,39.16
2023-03-02T08:23:58.963Z,36.48
2023-03-02T08:26:27.815Z,35.87
2023-03-02T08:28:56.564Z,34.48
2023-03-02T08:31:25.027Z,33.97
2023-03-02T08:33:55.124Z,34.41
2023-03-02T08:36:23.917Z,34.65
2023-03-02T08:38:53.268Z,33.25
2023-03-02T08:41:24.127Z,32.50
2023-03-02T08:43:54.191Z,34.46
2023-03-02T08:46:23.904Z,34.14
2023-03-02T08:48:52.256Z,35.53
2023-03-02T08:51:23.858Z,38.14
2023-03-02T08:53:55.043Z,38.21
2023-03-02T08:56:28.056Z,38.74
2023-03-02T08:58:59.859Z,33.42
2023-03-02T09:01:30.486Z,29.41
2023-03-02T09:04:00.730Z,27.26
2023-03-02T09:06:32.413Z,25.30
2023-03-02T09:09:01.451Z,26.21
2023-03-02T09:11:30.249Z,27.86
2023-03-02T09:13:58.668Z,30.24
2023-03-02T09:16:27.160Z,28.45
2023-03-02T09:18:56.048Z,26.04
2023-03-02T09:21:25.540Z,26.88
2023-03-02T09:23:59.752Z,25.82
2023-03-02T09:26:28.756Z,26.15
2023-03-02T09:28:57.415Z,24.54
2023-03-02T09:31:27.885Z,24.03
2023-03-02T09:33:57.985Z,23.91
2023-03-02T09:36:27.554Z,25.47
2023-03-02T09:38:57.505Z,22.65
2023-03-02T09:42:06.625Z,24.65
2023-03-02T09:45:00.101Z,23.85
2023-03-02T09:47:37.116Z,25.09
2023-03-02T09:50:26.549Z,25.48
2023-03-02T09:53:16.733Z,24.50
2023-03-02T09:55:52.772Z,25.22
2023-03-02T09:58:25.456Z,24.25
2023-03-02T10:00:53.996Z,22.69
2023-03-02T10:03:29.033Z,21.88
2023-03-02T10:05:58.879Z,22.88
2023-03-02T10:08:30.531Z,23.00
2023-03-02T10:11:07.166Z,21.96
2023-03-02T10:13:44.250Z,24.50
2023-03-02T10:16:22.691Z,26.49
2023-03-02T10:18:59.968Z,23.92
2023-03-02T10:21:34.061Z,23.90
2023-03-02T10:24:08.822Z,25.28
2023-03-02T10:26:42.005Z,22.31
2023-03-02T10:29:32.694Z,19.47
2023-03-02T10:32:09.113Z,21.92
2023-03-02T10:34:39.555Z,21.19
2023-03-02T10:37:15.515Z,19.19
2023-03-02T10:39:47.070Z,21.00
2023-03-02T10:42:21.574Z,21.45
2023-03-02T10:44:53.578Z,22.73
2023-03-02T10:47:28.744Z,23.86
2023-03-02T10:49:58.649Z,22.13
2023-03-02T10:52:28.639Z,21.93
2023-03-02T10:55:04.701Z,22.66
2023-03-02T10:57:39.006Z,24.61
2023-03-02T11:00:18.430Z,23.61
2023-03-02T11:02:51.975Z,22.80
2023-03-02T11:05:24.051Z,20.77
2023-03-02T11:07:54.763Z,21.31
2023-03-02T11:10:25.354Z,20.53
2023-03-02T11:12:55.125Z,22.55
2023-03-02T11:15:29.459Z,23.01
2023-03-02T11:18:05.269Z,19.94
2023-03-02T11:20:37.006Z,20.33
2023-03-02T11:23:19.543Z,21.56
2023-03-02T11:25:53.675Z,24.50
2023-03-02T11:28:34.714Z,23.41
2023-03-02T11:31:07.668Z,23.06
2023-03-02T11:33:40.645Z,23.04
2023-03-02T11:36:15.379Z,20.73
2023-03-02T11:38:48.587Z,20.32
2023-03-02T11:41:29.653Z,21.72
2023-03-02T11:44:02.272Z,21.00
2023-03-02T11:46:33.291Z,21.10
2023-03-02T11:49:06.003Z,18.34
2023-03-02T11:51:39.079Z,19.63
2023-03-02T11:54:33.774Z,19.45
2023-03-02T11:57:02.600Z,23.34
2023-03-02T11:59:33.068Z,20.82
2023-03-02T12:02:02.700Z,22.54
2023-03-02T12:04:33.978Z,19.58
2023-03-02T12:07:05.234Z,18.28
2023-03-02T12:09:37.215Z,18.57
2023-03-02T12:12:30.530Z,17.84
2023-03-02T12:15:00.760Z,16.84
2023-03-02T12:17:35.539Z,17.78
2023-03-02T12:20:24.823Z,20.04
2023-03-02T12:22:53.757Z,21.27
2023-03-02T12:25:38.025Z,22.54
2023-03-02T12:28:06.761Z,23.30
2023-03-02T12:30:37.762Z,22.33
2023-03-02T12:33:19.597Z,21.65
2023-03-02T12:35:49.968Z,20.69
2023-03-02T12:38:31.153Z,18.19
2023-03-02T12:41:25.405Z,17.86
2023-03-02T12:44:08.665Z,19.16
2023-03-02T12:46:40.286Z,18.63
2023-03-02T12:49:28.284Z,21.08
2023-03-02T12:51:58.084Z,20.01
2023-03-02T12:54:28.211Z,19.87
2023-03-02T12:57:08.861Z,19.34
2023-03-02T12:59:39.236Z,19.65
2023-03-02T13:02:18.202Z,19.15
2023-03-02T13:04:54.690Z,20.82
2023-03-02T13:07:26.519Z,20.51
2023-03-02T13:09:58.174Z,21.51
2023-03-02T13:12:29.212Z,21.11
2023-03-02T13:14:59.575Z,20.55
2023-03-02T13:17:31.648Z,18.74
2023-03-02T13:20:02.422Z,18.13
2023-03-02T13:22:31.332Z,20.35
2023-03-02T13:25:02.274Z,21.81
2023-03-02T13:27:31.560Z,21.49
2023-03-02T13:30:12.543Z,22.92
2023-03-02T13:32:43.253Z,24.04
2023-03-02T13:35:24.951Z,24.56
2023-03-02T13:38:01.235Z,25.49
2023-03-02T13:40:41.448Z,24.06
2023-03-02T13:43:35.480Z,23.23
2023-03-02T13:46:06.356Z,21.03
2023-03-02T13:48:36.108Z,20.49
2023-03-02T13:51:16.642Z,22.18
2023-03-02T13:53:54.020Z,22.86
2023-03-02T13:56:28.972Z,22.79
2023-03-02T13:58:59.128Z,21.76
2023-03-02T14:01:28.603Z,21.62
2023-03-02T14:04:00.477Z,22.37
2023-03-02T14:06:29.033Z,21.15
2023-03-02T14:08:57.612Z,21.15
2023-03-02T14:11:36.766Z,24.55
2023-03-02T14:14:06.676Z,26.57
2023-03-02T14:16:39.397Z,27.48
2023-03-02T14:19:11.547Z,26.71
2023-03-02T14:21:42.019Z,25.36
2023-03-02T14:24:10.754Z,25.43
2023-03-02T14:26:43.497Z,24.64
2023-03-02T14:29:22.335Z,24.60
2023-03-02T14:31:51.351Z,25.65
2023-03-02T14:34:21.139Z,25.55
2023-03-02T14:36:52.174Z,25.80
2023-03-02T14:39:24.986Z,25.64
2023-03-02T14:41:55.438Z,26.09
2023-03-02T14:44:24.222Z,27.59
2023-03-02T14:46:53.254Z,28.32
2023-03-02T14:49:23.027Z,29.04
2023-03-02T14:51:58.937Z,29.88
2023-03-02T14:54:28.297Z,29.97
2023-03-02T14:56:56.722Z,30.03
2023-03-02T14:59:25.024Z,32.16
2023-03-02T15:01:53.433Z,32.47
2023-03-02T15:04:23.151Z,31.91
2023-03-02T15:06:51.702Z,32.52
2023-03-02T15:09:20.060Z,34.32
2023-03-02T15:11:48.532Z,36.57
2023-03-02T15:14:17.154Z,36.01
2023-03-02T15:16:45.843Z,36.92
2023-03-02T15:19:14.808Z,37.51
2023-03-02T15:21:46.380Z,37.35
2023-03-02T15:24:14.966Z,37.34
2023-03-02T15:26:43.256Z,37.77
2023-03-02T15:29:11.813Z,38.08
2023-03-02T15:31:40.583Z,39.38
2023-03-02T15:34:10.614Z,40.49
2023-03-02T15:36:39.678Z,41.81
2023-03-02T15:39:13.673Z,42.76
2023-03-02T15:41:43.641Z,43.11
2023-03-02T15:44:21.444Z,42.97
2023-03-02T15:46:51.893Z,43.00
2023-03-02T15:49:22.832Z,43.71
2023-03-02T15:51:52.826Z,44.35
2023-03-02T15:54:22.901Z,45.68
2023-03-02T15:56:53.119Z,45.83
2023-03-02T15:59:22.180Z,45.79
2023-03-02T16:01:52.614Z,46.82
2023-03-02T16:04:21.065Z,47.71
2023-03-02T16:06:49.625Z,48.46
2023-03-02T16:09:18.201Z,48.81
2023-03-02T16:11:49.379Z,49.33
2023-03-02T16:14:18.008Z,49.42
2023-03-02T16:16:47.084Z,49.69
2023-03-02T16:19:19.195Z,50.00
2023-03-02T16:21:48.222Z,50.39
2023-03-02T16:24:17.311Z,50.34
2023-03-02T16:26:46.192Z,51.12
2023-03-02T16:29:15.912Z,52.38
2023-03-02T16:31:46.613Z,52.06
2023-03-02T16:34:15.266Z,52.93
2023-03-02T16:36:43.832Z,52.70
2023-03-02T16:39:13.855Z,53.05
2023-03-02T16:41:44.123Z,54.16
2023-03-02T16:44:13.388Z,54.29
2023-03-02T16:46:43.353Z,53.94
2023-03-02T16:52:05.193Z,56.25
2023-03-02T16:54:33.578Z,57.76
2023-03-02T16:57:03.763Z,58.26
2023-03-02T16:59:32.090Z,59.17
2023-03-02T17:02:01.962Z,59.74
2023-03-02T17:04:30.463Z,60.92
2023-03-02T17:07:00.879Z,62.17
2023-03-02T17:09:30.188Z,62.68
2023-03-02T17:11:58.632Z,63.23
2023-03-02T17:14:27.397Z,63.74
2023-03-02T17:16:56.328Z,64.53
2023-03-02T17:19:29.328Z,64.54
2023-03-02T17:21:59.065Z,65.31
2023-03-02T17:24:28.225Z,64.65
2023-03-02T17:26:59.403Z,65.09
2023-03-02T17:29:28.726Z,65.59
2023-03-02T17:31:59.018Z,66.31
2023-03-02T17:34:31.204Z,66.39
2023-03-02T17:37:00.583Z,66.20
2023-03-02T17:39:34.111Z,66.69
2023-03-02T17:42:02.440Z,67.25
2023-03-02T17:44:34.387Z,66.95
2023-03-02T17:47:03.893Z,67.60
2023-03-02T17:49:33.643Z,67.41
2023-03-02T17:52:02.108Z,68.57
2023-03-02T17:54:30.794Z,69.17
2023-03-02T17:56:59.469Z,69.67
2023-03-02T17:59:27.789Z,70.02
2023-03-02T18:01:56.674Z,70.89
2023-03-02T18:04:25.091Z,70.67
2023-03-02T18:06:54.925Z,71.62
2023-03-02T18:09:23.371Z,72.14
2023-03-02T18:11:51.803Z,72.70
2023-03-02T18:14:21.537Z,73.24
2023-03-02T18:16:49.911Z,73.90
2023-03-02T18:19:18.292Z,74.10
2023-03-02T18:21:46.717Z,75.32
2023-03-02T18:24:16.499Z,74.75
2023-03-02T18:26:45.111Z,75.25
2023-03-02T18:29:13.780Z,75.24
2023-03-02T18:31:42.358Z,75.75
2023-03-02T18:34:11.250Z,75.83
2023-03-02T18:36:39.721Z,76.80
2023-03-02T18:39:08.649Z,76.66
2023-03-02T18:41:38.339Z,77.23
2023-03-02T18:44:07.487Z,76.74
2023-03-02T18:46:36.100Z,78.19
2023-03-02T18:49:04.612Z,77.60
2023-03-02T18:51:33.176Z,76.88
2023-03-02T18:54:01.890Z,77.75
2023-03-02T18:56:30.558Z,77.18
2023-03-02T18:59:00.371Z,77.62
2023-03-02T19:01:31.718Z,78.11
2023-03-02T19:04:02.142Z,78.61
2023-03-02T19:06:30.985Z,78.83
2023-03-02T19:08:59.391Z,79.22
2023-03-02T19:11:27.827Z,79.01
2023-03-02T19:13:56.477Z,79.72
2023-03-02T19:16:26.244Z,79.80
2023-03-02T19:18:54.779Z,80.39
2023-03-02T19:21:23.135Z,80.40
2023-03-02T19:23:51.777Z,80.84
2023-03-02T19:26:20.301Z,81.71
2023-03-02T19:28:48.907Z,82.15
2023-03-02T19:31:17.697Z,82.68
2023-03-02T19:33:47.867Z,83.55
2023-03-02T19:36:16.602Z,83.35
2023-03-02T19:38:45.161Z,84.03
2023-03-02T19:41:16.307Z,84.16
2023-03-02T19:43:45.905Z,84.68
2023-03-02T19:46:15.634Z,85.78
2023-03-02T19:48:44.219Z,85.59
2023-03-02T19:51:15.640Z,86.19
2023-03-02T19:53:47.076Z,86.56
2023-03-02T19:56:16.476Z,86.92
2023-03-02T19:58:50.373Z,87.29
2023-03-02T20:01:21.526Z,87.93
2023-03-02T20:03:51.740Z,88.25
2023-03-02T20:06:23.341Z,88.30
2023-03-02T20:08:52.448Z,88.29
2023-03-02T20:11:21.268Z,88.49
2023-03-02T20:13:50.582Z,88.88
2023-03-02T20:16:23.009Z,89.09
2023-03-02T20:18:52.407Z,89.46
2023-03-02T20:21:25.871Z,89.66
2023-03-02T20:23:54.976Z,89.55
2023-03-02T20:26:27.680Z,89.47
2023-03-02T20:28:58.016Z,89.27
2023-03-02T20:31:27.401Z,89.61
2023-03-02T20:33:59.063Z,90.18
2023-03-02T20:36:32.695Z,90.40
2023-03-02T20:39:05.251Z,90.69
2023-03-02T20:41:34.117Z,91.13
2023-03-02T20:44:04.446Z,91.15
2023-03-02T20:46:36.381Z,91.73
2023-03-02T20:49:05.885Z,91.48
2023-03-02T20:51:35.931Z,90.94
2023-03-02T20:54:05.386Z,91.22
2023-03-02T20:56:33.877Z,91.05
2023-03-02T20:59:02.827Z,90.46
2023-03-02T21:01:31.600Z,90.41
2023-03-02T21:04:00.115Z,90.71
2023-03-02T21:06:29.469Z,90.93
2023-03-02T21:09:00.111Z,90.92
2023-03-02T21:11:29.451Z,91.20
2023-03-02T21:13:59.413Z,91.35
2023-03-02T21:16:30.148Z,91.82
2023-03-02T21:18:59.184Z,92.26
2023-03-02T21:21:40.661Z,92.50
2023-03-02T21:24:13.228Z,91.97
2023-03-02T21:26:44.157Z,92.31
2023-03-02T21:29:12.933Z,92.26
2023-03-02T21:31:43.725Z,92.19
2023-03-02T21:34:13.279Z,91.84
2023-03-02T21:36:44.175Z,91.86
2023-03-02T21:39:15.560Z,92.25
2023-03-02T21:41:44.571Z,92.32
2023-03-02T21:44:13.319Z,92.83
2023-03-02T21:46:44.519Z,92.30
2023-03-02T21:49:17.137Z,91.77
2023-03-02T21:51:48.087Z,92.14
2023-03-02T21:54:18.801Z,91.92
2023-03-02T21:56:47.611Z,91.83
2023-03-02T21:59:16.505Z,91.22
2023-03-02T22:01:45.249Z,91.62
2023-03-02T22:04:13.960Z,92.33
2023-03-02T22:06:42.858Z,91.99
2023-03-02T22:09:12.403Z,92.12
2023-03-02T22:11:42.799Z,92.08
2023-03-02T22:14:13.983Z,91.88
2023-03-02T22:16:46.486Z,92.20
2023-03-02T22:19:25.278Z,91.75
2023-03-02T22:21:54.441Z,91.50
2023-03-02T22:24:25.340Z,91.38
2023-03-02T22:26:59.695Z,91.77
2023-03-02T22:29:31.435Z,91.81
2023-03-02T22:32:14.089Z,91.44
2023-03-02T22:34:44.287Z,91.36
2023-03-02T22:37:15.122Z,91.00
2023-03-02T22:39:43.625Z,91.51
2023-03-02T22:42:17.184Z,91.74
2023-03-02T22:44:52.468Z,91.80
2023-03-02T22:47:21.444Z,92.17
2023-03-02T22:49:57.534Z,92.17
2023-03-02T22:52:36.114Z,91.74
2023-03-02T22:55:19.522Z,91.43
2023-03-02T22:57:49.578Z,91.40
2023-03-02T23:00:40.453Z,91.14
2023-03-02T23:03:17.668Z,90.77
2023-03-02T23:05:49.172Z,90.67
2023-03-02T23:08:22.208Z,90.92
2023-03-02T23:10:52.492Z,91.18
2023-03-02T23:13:26.936Z,91.20
2023-03-02T23:15:56.075Z,92.00
2023-03-02T23:18:27.536Z,92.39
2023-03-02T23:20:56.831Z,92.53
2023-03-02T23:23:27.632Z,93.12
2023-03-02T23:25:56.322Z,93.24
2023-03-02T23:28:26.161Z,93.14
2023-03-02T23:30:54.687Z,92.38
2023-03-02T23:33:23.293Z,92.93
2023-03-02T23:35:51.752Z,92.75
2023-03-02T23:38:20.381Z,92.98
2023-03-02T23:40:48.982Z,92.90
2023-03-02T23:43:17.529Z,92.63
2023-03-02T23:45:47.332Z,92.74
2023-03-02T23:48:16.435Z,92.52
2023-03-02T23:50:45.453Z,91.84
2023-03-02T23:53:14.208Z,91.63
2023-03-02T23:55:48.019Z,91.09
2023-03-02T23:58:17.084Z,91.24
